Time;durP1;ratioP1;P1;durP2;ratioP2;P2;SDS_P1;SDS_P2;PMS_P1;PMS_P2;Temp;Humidity;BMP_temperature;BMP_pressure;BME280_temperature;BME280_humidity;BME280_pressure;Samples;Min_cycle;Max_cycle;Signal;HPM_P1;HPM_P2
2023/03/11 00:01:25;;;;;;;23.63;14.30;;;8.90;99.90;;;8.65;70.84;97473.91;6291083;22;20215;-75
2023/03/11 00:03:54;;;;;;;25.20;13.53;;;8.90;99.90;;;8.66;71.36;97479.88;6290538;22;20169;-74
2023/03/11 00:06:24;;;;;;;21.77;13.93;;;8.90;99.90;;;8.64;71.00;97471.38;6289751;22;20599;-75
2023/03/11 00:08:52;;;;;;;20.20;13.47;;;8.90;99.90;;;8.66;71.95;97479.88;6288399;22;20199;-76
2023/03/11 00:11:22;;;;;;;22.10;13.47;;;8.80;99.90;;;8.65;71.58;97478.16;6283017;22;20169;-78
2023/03/11 00:13:52;;;;;;;22.77;14.63;;;8.80;99.90;;;8.64;70.98;97479.91;6284941;22;20244;-76
2023/03/11 00:16:22;;;;;;;19.50;12.77;;;8.80;99.90;;;8.64;71.56;97479.91;6284292;22;20161;-76
2023/03/11 00:18:51;;;;;;;21.60;13.63;;;8.80;99.90;;;8.62;71.13;97468.06;6284074;22;20207;-75
2023/03/11 00:21:20;;;;;;;17.97;12.47;;;8.80;99.90;;;8.61;71.24;97463.81;6284704;22;20192;-75
2023/03/11 00:23:50;;;;;;;20.93;12.63;;;8.80;99.90;;;8.59;71.24;97463.06;6285424;22;20183;-74
2023/03/11 00:26:19;;;;;;;21.37;12.33;;;8.80;99.90;;;8.59;71.65;97463.91;6283755;22;20168;-74
2023/03/11 00:28:48;;;;;;;21.43;12.63;;;8.80;99.90;;;8.58;71.13;97467.38;6284351;22;20520;-74
2023/03/11 00:31:19;;;;;;;20.37;12.53;;;8.80;99.90;;;8.58;71.90;97471.66;6282548;22;20191;-73
2023/03/11 00:33:49;;;;;;;19.37;12.97;;;8.80;99.90;;;8.59;71.46;97463.91;6283243;22;20591;-73
2023/03/11 00:36:30;;;;;;;18.37;12.97;;;8.80;99.90;;;8.59;72.11;97458.75;6282429;22;20543;-73
2023/03/11 00:38:59;;;;;;;21.40;13.10;;;8.80;99.90;;;8.58;71.67;97459.69;6282286;22;20164;-74
2023/03/11 00:41:30;;;;;;;19.10;12.70;;;8.80;99.90;;;8.57;71.64;97459.72;6281449;22;20654;-74
2023/03/11 00:44:03;;;;;;;22.33;13.20;;;8.70;99.90;;;8.58;71.78;97451.13;6282222;22;20164;-74
2023/03/11 00:46:35;;;;;;;18.60;11.83;;;8.70;99.90;;;8.57;71.87;97450.28;6281127;22;20172;-74
2023/03/11 00:49:03;;;;;;;20.37;12.37;;;8.70;99.90;;;8.55;71.25;97454.69;6281829;22;20161;-74
2023/03/11 00:51:33;;;;;;;21.70;12.97;;;8.70;99.90;;;8.54;72.01;97445.28;6282025;22;20200;-73
2023/03/11 00:54:02;;;;;;;19.43;12.37;;;8.70;99.90;;;8.50;71.85;97446.34;6282568;22;20558;-74
2023/03/11 00:56:31;;;;;;;17.40;12.60;;;8.70;99.90;;;8.45;72.57;97441.41;6256342;22;20226;-74
2023/03/11 00:58:59;;;;;;;17.90;12.60;;;8.60;99.90;;;8.43;71.97;97437.25;6288828;22;20169;-75
2023/03/11 01:01:28;;;;;;;20.30;11.97;;;8.60;99.90;;;8.39;72.81;97428.84;6291486;22;20193;-75
2023/03/11 01:03:58;;;;;;;21.10;12.70;;;8.60;99.90;;;8.37;71.83;97429.81;6292064;22;20177;-74
2023/03/11 01:06:30;;;;;;;20.00;12.73;;;8.50;99.90;;;8.32;72.09;97424.03;6290248;22;20157;-73
2023/03/11 01:09:12;;;;;;;19.23;12.63;;;8.50;99.90;;;8.28;72.68;97428.47;6266664;22;20192;-74
2023/03/11 01:11:41;;;;;;;19.93;12.10;;;8.40;99.90;;;8.23;72.84;97431.25;6263855;22;20176;-74
2023/03/11 01:14:10;;;;;;;17.17;12.53;;;8.40;99.90;;;8.20;72.71;97430.53;6259477;22;20177;-75
2023/03/11 01:16:39;;;;;;;20.07;12.17;;;8.40;99.90;;;8.16;72.97;97429.00;6282565;22;20177;-75
2023/03/11 01:19:09;;;;;;;17.07;11.40;;;8.30;99.90;;;8.11;73.77;97431.78;6282483;22;20226;-77
2023/03/11 01:21:38;;;;;;;20.23;12.53;;;8.30;99.90;;;8.09;73.23;97435.31;6282861;22;20652;-76
2023/03/11 01:24:08;;;;;;;19.23;12.43;;;8.30;99.90;;;8.06;72.99;97431.13;6282802;22;20172;-77
2023/03/11 01:26:37;;;;;;;21.27;11.50;;;8.30;99.90;;;8.04;74.08;97430.38;6283255;22;20504;-74
2023/03/11 01:29:06;;;;;;;22.67;11.83;;;8.20;99.90;;;8.01;73.49;97425.38;6257308;22;20199;-76
2023/03/11 01:31:35;;;;;;;19.10;12.40;;;8.20;99.90;;;7.99;73.04;97424.63;6282718;22;20186;-76
2023/03/11 01:34:05;;;;;;;17.47;11.67;;;8.20;99.90;;;7.95;73.39;97429.06;6282767;22;20161;-76
2023/03/11 01:36:35;;;;;;;19.00;11.67;;;8.10;99.90;;;7.94;73.47;97424.81;6282518;22;20180;-78
2023/03/11 01:39:04;;;;;;;17.23;11.33;;;8.10;99.90;;;7.90;73.11;97423.28;6281741;22;20184;-77
2023/03/11 01:41:37;;;;;;;16.63;11.67;;;8.10;99.90;;;7.87;73.57;97410.59;6281916;22;20181;-77
2023/03/11 01:44:07;;;;;;;17.93;11.47;;;8.00;99.90;;;7.84;73.59;97412.44;6283079;22;20161;-75
2023/03/11 01:47:16;;;;;;;19.83;11.47;;;8.00;99.90;;;7.80;74.12;97401.50;6282335;22;20227;-76
2023/03/11 01:49:48;;;;;;;16.87;11.03;;;8.00;99.90;;;7.77;nan;97409.34;6282493;22;20180;-75
2023/03/11 01:52:20;;;;;;;19.77;11.50;;;7.90;99.90;;;7.74;74.42;97417.97;6281638;22;20162;-76
2023/03/11 01:54:50;;;;;;;17.37;10.70;;;7.90;99.90;;;7.72;73.89;97414.63;6282481;22;20192;-76
2023/03/11 01:57:20;;;;;;;22.90;11.50;;;7.90;99.90;;;7.71;74.21;97412.97;6282041;22;20184;-76
2023/03/11 01:59:56;;;;;;;16.23;11.40;;;7.80;99.90;;;7.68;74.33;97404.59;6282601;22;20177;-73
2023/03/11 02:02:32;;;;;;;18.37;10.53;;;7.80;99.90;;;7.66;74.43;97408.97;6281529;22;20184;-73
2023/03/11 02:05:03;;;;;;;16.17;10.43;;;7.80;99.90;;;7.62;74.05;97410.81;6281847;22;20170;-74
2023/03/11 02:07:35;;;;;;;16.37;10.07;;;7.80;99.90;;;7.59;74.24;97405.81;6281441;22;20172;-73
2023/03/11 02:10:07;;;;;;;18.60;10.53;;;7.70;99.90;;;7.58;74.21;97398.19;6283571;22;20191;-74
2023/03/11 02:12:37;;;;;;;13.67;10.30;;;7.70;99.90;;;7.55;74.99;97406.84;6282569;22;20169;-73
2023/03/11 02:15:10;;;;;;;15.13;9.70;;;7.70;99.90;;;7.52;74.16;97412.09;6282354;22;20605;-74
2023/03/11 02:17:43;;;;;;;16.27;10.33;;;7.70;99.90;;;7.50;74.23;97403.63;6282773;22;20238;-75
2023/03/11 02:20:33;;;;;;;17.00;10.93;;;7.60;99.90;;;7.48;74.33;97401.16;6291088;22;20161;-74
2023/03/11 02:23:04;;;;;;;17.53;9.93;;;7.60;99.90;;;7.45;74.75;97395.31;6290236;22;20181;-74
2023/03/11 02:25:41;;;;;;;14.33;9.47;;;7.60;99.90;;;7.43;74.62;97394.53;6287991;22;20165;-75
2023/03/11 02:28:15;;;;;;;18.63;10.63;;;7.50;99.90;;;7.42;74.60;97396.25;6282670;22;20196;-74
2023/03/11 02:30:46;;;;;;;13.33;9.73;;;7.60;99.90;;;7.41;74.44;97394.59;6283137;22;20246;-75
2023/03/11 02:33:16;;;;;;;14.30;9.10;;;7.50;99.90;;;7.38;74.60;97393.91;6255695;22;20161;-75
2023/03/11 02:35:45;;;;;;;12.37;8.70;;;7.50;99.90;;;7.38;75.13;97389.59;6281763;22;20173;-75
2023/03/11 02:38:14;;;;;;;13.93;8.83;;;7.50;99.90;;;7.35;74.43;97383.78;6282446;22;20268;-75
2023/03/11 02:40:54;;;;;;;13.33;8.40;;;7.50;99.90;;;7.34;74.23;97387.25;6256405;22;20614;-77
2023/03/11 02:43:36;;;;;;;12.83;8.13;;;7.40;99.90;;;7.31;74.10;97395.03;6281716;22;20164;-77
2023/03/11 02:46:09;;;;;;;14.43;8.67;;;7.40;99.90;;;7.30;74.83;97380.59;6281954;22;20462;-77
2023/03/11 02:48:41;;;;;;;13.67;8.27;;;7.40;99.90;;;7.29;73.62;97394.25;6256337;22;20161;-77
2023/03/11 02:51:10;;;;;;;11.47;7.57;;;7.40;99.90;;;7.26;74.19;97395.25;6281732;22;20178;-78
2023/03/11 02:53:46;;;;;;;12.70;7.93;;;7.40;99.90;;;7.23;73.88;97393.63;6281424;22;20626;-77
2023/03/11 02:56:15;;;;;;;11.53;7.37;;;7.40;99.90;;;7.20;73.86;97386.06;6281307;22;20465;-78
2023/03/11 02:58:45;;;;;;;12.10;6.90;;;7.30;99.90;;;7.20;73.93;97393.75;6280947;22;20215;-77
2023/03/11 03:01:14;;;;;;;11.87;6.77;;;7.30;99.90;;;7.18;73.90;97394.69;6281304;22;20169;-78
2023/03/11 03:03:44;;;;;;;11.67;7.77;;;7.30;99.90;;;7.16;73.93;97388.81;6280932;22;20225;-78
2023/03/11 03:06:13;;;;;;;11.37;7.13;;;7.30;99.90;;;7.15;73.96;97385.44;6280696;22;20172;-78
2023/03/11 03:08:41;;;;;;;11.50;7.87;;;7.20;99.90;;;7.13;74.26;97382.09;6280928;22;20242;-78
2023/03/11 03:11:10;;;;;;;13.73;7.60;;;7.20;99.90;;;7.11;73.98;97378.78;6280997;22;20199;-78
2023/03/11 03:13:39;;;;;;;11.27;7.50;;;7.20;99.90;;;7.10;74.60;97379.66;6280600;22;20169;-74
2023/03/11 03:16:10;;;;;;;12.07;7.23;;;7.20;99.90;;;7.10;73.95;97384.75;6282007;22;20176;-74
2023/03/11 03:18:39;;;;;;;10.27;7.10;;;7.20;99.90;;;7.08;73.81;97381.44;6281821;22;20287;-73
2023/03/11 03:21:08;;;;;;;11.10;6.90;;;7.20;99.90;;;7.06;74.16;97378.09;6281328;22;20169;-74
2023/03/11 03:23:36;;;;;;;13.37;7.17;;;7.10;99.90;;;7.06;74.23;97382.41;6282227;22;20196;-75
2023/03/11 03:26:06;;;;;;;10.23;6.20;;;7.10;99.90;;;7.03;74.46;97383.34;6282381;22;20177;-74
2023/03/11 03:28:36;;;;;;;12.03;6.70;;;7.10;99.90;;;7.05;73.87;97386.69;6280972;22;20223;-73
2023/03/11 03:31:08;;;;;;;12.43;6.67;;;7.10;99.90;;;7.05;74.17;97386.69;6283924;22;20163;-74
2023/03/11 03:33:37;;;;;;;10.63;5.83;;;7.10;99.90;;;7.06;74.77;97388.34;6289865;22;20195;-74
2023/03/11 03:36:07;;;;;;;11.13;6.27;;;7.20;99.90;;;7.07;73.86;97384.91;6288973;22;20621;-74
2023/03/11 03:38:37;;;;;;;13.77;6.73;;;7.20;99.90;;;7.10;74.04;97381.38;6290177;22;20165;-76
2023/03/11 03:41:07;;;;;;;10.93;6.47;;;7.20;99.90;;;7.09;74.19;97380.53;6281010;22;20219;-74
2023/03/11 03:43:36;;;;;;;8.37;5.87;;;7.20;99.90;;;7.12;73.95;97372.75;6280810;22;20195;-74
2023/03/11 03:46:06;;;;;;;10.67;5.90;;;7.20;99.90;;;7.14;73.93;97370.09;6281800;22;20181;-74
2023/03/11 03:48:36;;;;;;;9.20;6.23;;;7.20;99.90;;;7.14;73.73;97370.09;6282751;22;20477;-74
2023/03/11 03:51:08;;;;;;;11.53;6.30;;;7.20;99.90;;;7.14;74.07;97375.22;6284171;22;20156;-74
2023/03/11 03:53:40;;;;;;;10.13;6.27;;;7.30;99.90;;;7.18;74.08;97381.88;6282253;22;20165;-73
2023/03/11 03:56:11;;;;;;;12.93;5.80;;;7.30;99.90;;;7.19;74.00;97374.16;6282959;22;20158;-73
2023/03/11 03:58:41;;;;;;;8.53;6.13;;;7.30;99.90;;;7.21;73.78;97374.91;6283095;22;20566;-74
2023/03/11 04:01:11;;;;;;;9.07;6.00;;;7.30;99.90;;;7.24;73.78;97366.28;6281173;22;20474;-75
2023/03/11 04:03:49;;;;;;;8.40;5.40;;;7.40;99.90;;;7.26;74.04;97364.50;6281703;22;20185;-75
2023/03/11 04:06:20;;;;;;;9.57;5.33;;;7.40;99.90;;;7.27;73.36;97355.91;6283074;22;20610;-74
2023/03/11 04:08:52;;;;;;;10.47;5.60;;;7.40;99.90;;;7.28;73.61;97352.44;6282715;22;20168;-73
2023/03/11 04:11:22;;;;;;;7.63;5.37;;;7.40;99.90;;;7.29;73.32;97349.03;6283466;22;20184;-73
2023/03/11 04:13:50;;;;;;;10.13;5.50;;;7.40;99.90;;;7.30;73.55;97350.69;6283967;22;20654;-74
2023/03/11 04:16:22;;;;;;;7.67;4.80;;;7.40;99.90;;;7.31;73.08;97351.50;6281650;22;20234;-78
2023/03/11 04:18:55;;;;;;;9.83;5.50;;;7.50;99.90;;;7.32;72.98;97361.66;6280953;22;20207;-78
2023/03/11 04:21:23;;;;;;;7.90;5.13;;;7.50;99.90;;;7.35;72.79;97353.88;6280889;22;20173;-77
2023/03/11 04:23:55;;;;;;;11.17;5.53;;;7.50;99.90;;;7.37;73.54;97348.69;6281863;22;20181;-78
2023/03/11 04:26:23;;;;;;;8.50;5.33;;;7.50;99.90;;;7.39;73.05;97344.31;6282530;22;20242;-78
2023/03/11 04:28:52;;;;;;;9.60;5.50;;;7.50;99.90;;;7.40;73.21;97330.63;6283178;22;20653;-77
2023/03/11 04:31:22;;;;;;;10.13;5.17;;;7.50;99.90;;;7.42;73.39;97333.94;6282009;22;20181;-77
2023/03/11 04:33:51;;;;;;;7.80;5.23;;;7.50;99.90;;;7.42;72.81;97344.19;6281749;22;20683;-76
2023/03/11 04:36:20;;;;;;;8.27;5.40;;;7.60;99.90;;;7.43;72.68;97346.69;6280729;22;20242;-76
2023/03/11 04:38:49;;;;;;;9.87;5.47;;;7.50;99.90;;;7.45;72.79;97351.75;6280675;22;20173;-77
2023/03/11 04:41:18;;;;;;;8.97;5.87;;;7.50;99.90;;;7.44;72.32;97355.22;6283657;22;20267;-77
2023/03/11 04:43:46;;;;;;;8.53;5.67;;;7.60;99.90;;;7.41;72.38;97350.22;6282835;22;20693;-77
2023/03/11 04:46:16;;;;;;;11.40;6.23;;;7.50;99.90;;;7.40;72.47;97345.97;6282188;22;20173;-77
2023/03/11 04:48:45;;;;;;;7.37;5.10;;;7.50;99.90;;;7.39;72.77;97352.84;6281570;22;20619;-77
2023/03/11 04:51:14;;;;;;;8.37;5.73;;;7.50;99.90;;;7.38;72.92;97347.78;6288087;22;20548;-74
2023/03/11 04:53:46;;;;;;;9.17;5.00;;;7.50;99.90;;;7.37;73.14;97341.00;6288966;22;20236;-75
2023/03/11 04:56:15;;;;;;;7.23;5.27;;;7.50;99.90;;;7.37;73.31;97346.97;6282523;22;20226;-77
2023/03/11 04:58:43;;;;;;;8.60;5.37;;;7.50;99.90;;;7.38;73.22;97351.19;6281997;22;20605;-75
2023/03/11 05:01:12;;;;;;;8.23;5.30;;;7.50;99.90;;;7.40;72.40;97361.34;6281836;22;20168;-75
2023/03/11 05:03:41;;;;;;;8.13;4.93;;;7.50;99.90;;;7.39;72.89;97357.13;6285909;22;20684;-75
2023/03/11 05:06:10;;;;;;;8.23;5.87;;;7.50;99.90;;;7.39;72.92;97355.41;6285205;22;20168;-75
2023/03/11 05:08:39;;;;;;;7.67;5.37;;;7.50;99.90;;;7.40;73.09;97361.34;6283870;22;20180;-75
2023/03/11 05:11:09;;;;;;;8.37;5.50;;;7.50;99.90;;;7.41;73.11;97360.47;6284351;22;20614;-75
2023/03/11 05:13:41;;;;;;;8.87;5.63;;;7.50;99.90;;;7.41;72.62;97357.91;6282754;22;20157;-75
2023/03/11 05:16:10;;;;;;;7.70;5.03;;;7.50;99.90;;;7.42;72.42;97357.84;6282342;22;20228;-76
2023/03/11 05:18:39;;;;;;;7.70;5.43;;;7.50;99.90;;;7.43;72.94;97358.66;6282103;22;20717;-75
2023/03/11 05:21:08;;;;;;;11.87;5.77;;;7.60;99.90;;;7.43;72.51;97351.81;6282218;22;20177;-76
2023/03/11 05:23:36;;;;;;;6.97;5.00;;;7.50;99.90;;;7.45;73.37;97344.91;6283092;22;20204;-75
2023/03/11 05:26:05;;;;;;;8.53;5.27;;;7.60;99.90;;;7.46;73.10;97351.69;6281989;22;20228;-73
2023/03/11 05:28:35;;;;;;;6.13;4.87;;;7.60;99.90;;;7.48;72.62;97352.47;6280747;22;20213;-76
2023/03/11 05:31:09;;;;;;;7.97;5.10;;;7.60;99.90;;;7.52;73.29;97354.91;6280744;22;20164;-77
2023/03/11 05:33:38;;;;;;;6.57;4.70;;;7.60;99.90;;;7.49;72.80;97351.56;6280305;22;20239;-79
2023/03/11 05:36:09;;;;;;;7.63;5.00;;;7.60;99.90;;;7.50;72.58;97357.50;6279318;22;20226;-77
2023/03/11 05:38:39;;;;;;;8.83;5.50;;;7.60;99.90;;;7.50;72.75;97357.50;6281436;22;20187;-76
2023/03/11 05:41:08;;;;;;;11.40;5.20;;;7.60;99.90;;;7.48;72.96;97359.31;6283095;22;20211;-76
2023/03/11 05:43:38;;;;;;;8.50;5.43;;;7.60;99.90;;;7.47;72.73;97355.94;6283308;22;20199;-78
2023/03/11 05:46:07;;;;;;;10.93;5.63;;;7.60;99.90;;;7.45;73.29;97352.59;6282253;22;20195;-77
2023/03/11 05:48:36;;;;;;;7.80;5.90;;;7.60;99.90;;;7.46;73.15;97361.09;6281812;22;20204;-77
2023/03/11 05:51:09;;;;;;;9.83;4.83;;;7.50;99.90;;;7.46;73.05;97355.97;6281329;22;20173;-77
2023/03/11 05:53:38;;;;;;;8.00;4.80;;;7.60;99.90;;;7.47;73.26;97352.50;6281221;22;20173;-77
2023/03/11 05:56:08;;;;;;;7.80;5.63;;;7.60;99.90;;;7.48;73.72;97349.91;6253602;22;20577;-78
2023/03/11 05:58:38;;;;;;;8.37;5.50;;;7.60;99.90;;;7.53;73.39;97352.25;6281017;22;20173;-75
2023/03/11 06:01:12;;;;;;;9.77;5.57;;;7.60;99.90;;;7.57;73.21;97347.84;6281002;22;20157;-77
2023/03/11 06:03:43;;;;;;;10.07;5.13;;;7.70;99.90;;;7.61;73.74;97355.31;6281065;22;20196;-79
2023/03/11 06:06:16;;;;;;;9.70;4.67;;;7.70;99.90;;;7.64;74.08;97355.19;6282612;22;20157;-77
2023/03/11 06:08:49;;;;;;;8.27;4.90;;;7.70;99.90;;;7.68;73.57;97346.47;6256013;22;20156;-77
2023/03/11 06:11:18;;;;;;;7.70;5.00;;;7.80;99.90;;;7.74;73.60;97358.22;6281941;22;20165;-77
2023/03/11 06:13:53;;;;;;;6.07;4.53;;;7.80;99.90;;;7.77;74.12;97359.78;6253860;22;20176;-77
2023/03/11 06:16:22;;;;;;;4.83;4.07;;;7.90;99.90;;;7.80;73.60;97357.91;6281502;22;20175;-77
2023/03/11 06:18:51;;;;;;;5.57;4.07;;;7.90;99.90;;;7.80;73.75;97360.47;6279603;22;20584;-77
2023/03/11 06:21:25;;;;;;;6.07;4.37;;;7.90;99.90;;;7.83;73.93;97370.59;6282288;22;20230;-77
2023/03/11 06:23:55;;;;;;;6.63;4.73;;;8.00;99.90;;;7.86;74.28;97369.66;6281329;22;20188;-78
2023/03/11 06:26:24;;;;;;;4.43;3.80;;;8.00;99.90;;;7.88;74.08;97371.25;6284387;22;20168;-80
2023/03/11 06:28:55;;;;;;;5.43;4.47;;;8.00;99.90;;;7.90;74.57;97376.31;6281316;22;20204;-78
2023/03/11 06:31:26;;;;;;;5.77;4.50;;;8.10;99.90;;;7.91;74.48;97370.28;6281618;22;20177;-77
2023/03/11 06:33:55;;;;;;;6.53;4.30;;;8.10;99.90;;;7.92;74.77;97384.78;6281337;22;20503;-77
2023/03/11 06:36:25;;;;;;;6.20;4.27;;;8.10;99.90;;;7.95;75.00;97389.75;6288568;22;20177;-75
2023/03/11 06:38:55;;;;;;;5.73;4.07;;;8.10;99.90;;;7.95;75.17;97380.34;6285951;22;20227;-78
2023/03/11 06:41:23;;;;;;;5.80;4.10;;;8.20;99.90;;;7.96;75.39;97384.56;6280676;22;20203;-78
2023/03/11 06:43:52;;;;;;;6.60;4.47;;;8.20;99.90;;;7.99;74.50;97387.00;6280925;22;20207;-78
2023/03/11 06:46:24;;;;;;;5.73;4.63;;;8.20;99.90;;;8.01;74.78;97386.94;6280286;22;20215;-80
2023/03/11 06:48:55;;;;;;;6.80;4.00;;;8.20;99.90;;;8.01;74.35;97392.06;6280967;22;20164;-77
2023/03/11 06:51:26;;;;;;;5.57;4.20;;;8.20;99.90;;;8.02;75.16;97395.44;6281918;22;20598;-77
2023/03/11 06:53:55;;;;;;;5.17;4.20;;;8.20;99.90;;;8.03;74.73;97392.84;6281399;22;20211;-74
2023/03/11 06:56:25;;;;;;;6.10;4.73;;;8.30;99.90;;;8.04;74.94;97388.53;6286868;22;20598;-74
2023/03/11 06:58:54;;;;;;;6.47;4.03;;;8.30;99.90;;;8.08;74.39;97390.88;6290426;22;20554;-75
2023/03/11 07:01:27;;;;;;;6.13;4.40;;;8.30;99.90;;;8.12;74.68;97394.16;6291460;22;20242;-75
2023/03/11 07:03:56;;;;;;;5.17;4.67;;;8.40;99.90;;;8.16;74.58;97395.66;6290092;22;20512;-75
2023/03/11 07:06:27;;;;;;;5.60;4.97;;;8.40;99.90;;;8.19;74.93;97398.09;6291329;22;20172;-75
2023/03/11 07:08:57;;;;;;;5.70;4.10;;;8.40;99.90;;;8.22;74.92;97398.81;6291383;22;20191;-75
2023/03/11 07:11:27;;;;;;;4.70;4.20;;;8.40;99.90;;;8.23;75.09;97404.75;6291608;22;20176;-74
2023/03/11 07:14:04;;;;;;;7.20;4.87;;;8.40;99.90;;;8.23;73.97;97400.47;6291483;22;20238;-74
2023/03/11 07:16:34;;;;;;;6.13;4.63;;;8.40;99.90;;;8.22;74.71;97403.09;6289884;22;20251;-73
2023/03/11 07:19:03;;;;;;;6.70;4.97;;;8.40;99.90;;;8.23;74.54;97409.88;6290637;22;20200;-77
2023/03/11 07:21:33;;;;;;;5.57;4.80;;;8.50;99.90;;;8.21;74.30;97407.41;6291629;22;20176;-75
2023/03/11 07:24:02;;;;;;;5.87;5.13;;;8.40;99.90;;;8.21;74.57;97415.09;6292517;22;20204;-74
2023/03/11 07:26:33;;;;;;;7.43;5.87;;;8.50;99.90;;;8.21;73.99;97403.97;6291436;22;20199;-74
2023/03/11 07:29:03;;;;;;;5.57;4.97;;;8.40;99.90;;;8.21;73.75;97415.09;6290091;22;20245;-73
2023/03/11 07:31:36;;;;;;;5.93;5.33;;;8.40;99.90;;;8.19;74.70;97419.44;6283000;22;20173;-75
2023/03/11 07:34:10;;;;;;;6.03;5.30;;;8.40;99.90;;;8.14;74.25;97416.28;6284064;22;20160;-75
2023/03/11 07:36:44;;;;;;;7.47;5.60;;;8.40;99.90;;;8.18;75.20;97422.09;6283739;22;20160;-73
2023/03/11 07:39:16;;;;;;;6.67;5.77;;;8.40;99.90;;;8.17;74.44;97425.53;6283844;22;20169;-74
2023/03/11 07:41:47;;;;;;;7.53;5.83;;;8.40;99.90;;;8.18;74.17;97417.78;6282669;22;20219;-72
2023/03/11 07:44:18;;;;;;;7.87;6.23;;;8.40;99.90;;;8.20;74.46;97426.25;6283082;22;20207;-73
2023/03/11 07:46:50;;;;;;;8.20;6.37;;;8.40;99.90;;;8.21;74.08;97433.06;6283236;22;20207;-73
2023/03/11 07:49:19;;;;;;;7.43;6.63;;;8.40;99.90;;;8.22;74.73;97433.88;6283366;22;20165;-74
2023/03/11 07:51:47;;;;;;;7.37;6.63;;;8.50;99.90;;;8.20;74.68;97428.81;6283119;22;20184;-75
2023/03/11 07:54:18;;;;;;;7.70;6.77;;;8.40;99.90;;;8.22;75.11;97432.16;6288345;22;20180;-75
2023/03/11 07:56:49;;;;;;;7.67;6.97;;;8.40;99.90;;;8.21;74.61;97427.06;6291540;22;20165;-75
2023/03/11 07:59:18;;;;;;;8.27;7.37;;;8.40;99.90;;;8.18;74.21;97428.06;6291651;22;20235;-76
2023/03/11 08:01:49;;;;;;;8.77;7.27;;;8.40;99.90;;;8.15;74.81;97442.75;6291894;22;20653;-75
2023/03/11 08:04:19;;;;;;;8.53;7.40;;;8.40;99.90;;;8.12;74.81;97442.88;6291436;22;20189;-75
2023/03/11 08:06:49;;;;;;;8.23;7.07;;;8.30;99.90;;;8.09;74.84;97443.00;6291658;22;20172;-75
2023/03/11 08:09:18;;;;;;;8.97;7.57;;;8.30;99.90;;;8.10;75.51;97448.09;6292242;22;20176;-76
2023/03/11 08:11:46;;;;;;;7.63;6.67;;;8.30;99.90;;;8.13;74.15;97442.78;6291301;22;20172;-75
2023/03/11 08:14:17;;;;;;;6.77;6.07;;;8.30;99.90;;;8.10;74.96;97440.38;6291070;22;20175;-75
2023/03/11 08:16:45;;;;;;;8.50;7.33;;;8.30;99.90;;;8.09;74.97;97438.69;6290980;22;20181;-74
2023/03/11 08:19:16;;;;;;;8.63;6.90;;;8.30;99.90;;;8.09;74.63;97443.84;6285824;22;20242;-74
2023/03/11 08:21:47;;;;;;;8.30;7.50;;;8.30;99.90;;;8.08;74.71;97447.31;6289401;22;20160;-80
2023/03/11 08:24:17;;;;;;;8.60;7.80;;;8.30;99.90;;;8.11;74.59;97441.22;6286675;22;20161;-73
2023/03/11 08:26:46;;;;;;;9.00;7.73;;;8.30;99.90;;;8.11;75.09;97457.44;6260463;22;20168;-77
2023/03/11 08:29:15;;;;;;;8.03;7.23;;;8.30;99.90;;;8.08;74.26;97456.72;6286359;22;20587;-77
2023/03/11 08:31:44;;;;;;;6.77;6.07;;;8.20;99.90;;;8.05;74.27;97464.56;6285768;22;20169;-75
2023/03/11 08:34:13;;;;;;;10.07;6.87;;;8.20;99.90;;;8.01;74.22;97476.66;6283853;22;20173;-74
2023/03/11 08:36:44;;;;;;;13.73;9.63;;;8.20;99.90;;;7.98;75.13;97467.38;6281867;22;20610;-74
2023/03/11 08:39:12;;;;;;;26.93;18.90;;;8.20;99.90;;;8.01;75.92;97466.41;6279535;22;20234;-76
2023/03/11 08:41:41;;;;;;;18.70;14.97;;;8.20;99.90;;;8.03;75.61;97468.91;6277033;22;20473;-77
2023/03/11 08:44:09;;;;;;;18.23;13.50;;;8.30;99.90;;;8.06;75.55;97469.59;6279960;22;20177;-76
2023/03/11 08:46:41;;;;;;;9.10;7.70;;;8.30;99.90;;;8.12;75.66;97489.88;6283187;22;20199;-78
2023/03/11 08:49:10;;;;;;;8.33;7.47;;;8.40;99.90;;;8.13;74.95;97481.25;6293396;22;20161;-73
2023/03/11 08:51:41;;;;;;;9.27;8.03;;;8.30;99.90;;;8.09;74.92;97484.88;6294867;22;20169;-73
2023/03/11 08:54:10;;;;;;;11.13;8.93;;;8.30;99.90;;;8.03;75.65;97486.84;6296666;22;20175;-73
2023/03/11 08:56:39;;;;;;;9.80;8.47;;;8.20;99.90;;;7.99;75.86;97501.56;6296167;22;20199;-74
2023/03/11 08:59:08;;;;;;;8.87;7.97;;;8.20;99.90;;;7.96;75.21;97505.06;6295969;22;20156;-74
2023/03/11 09:01:37;;;;;;;9.53;8.43;;;8.20;99.90;;;7.94;76.23;97509.41;6296162;22;20173;-74
2023/03/11 09:04:06;;;;;;;10.93;8.53;;;8.20;99.90;;;7.94;75.65;97511.16;6294839;22;20187;-73
2023/03/11 09:06:35;;;;;;;9.40;8.40;;;8.20;99.90;;;7.93;76.00;97515.44;6296317;22;20193;-74
2023/03/11 09:09:05;;;;;;;10.30;9.27;;;8.10;99.90;;;7.93;76.02;97518.03;6295752;22;20219;-73
2023/03/11 09:11:36;;;;;;;11.70;9.10;;;8.10;99.90;;;7.91;75.71;97522.38;6295058;22;20225;-74
2023/03/11 09:14:05;;;;;;;10.80;8.43;;;8.10;99.90;;;7.91;75.95;97526.66;6270259;22;20171;-72
2023/03/11 09:16:34;;;;;;;9.80;8.80;;;8.10;99.90;;;7.91;76.35;97536.91;6295551;22;20236;-73
2023/03/11 09:19:06;;;;;;;11.37;10.17;;;8.10;99.90;;;7.89;76.50;97531.03;6295505;22;20200;-72
2023/03/11 09:21:35;;;;;;;10.80;9.50;;;8.10;99.90;;;7.83;76.35;97539.78;6293479;22;20172;-72
2023/03/11 09:24:06;;;;;;;11.20;8.77;;;8.00;99.90;;;7.78;76.60;97539.16;6294505;22;20189;-71
2023/03/11 09:26:36;;;;;;;10.40;9.23;;;8.00;99.90;;;7.74;77.09;97535.88;6285856;22;20185;-76
2023/03/11 09:29:06;;;;;;;11.13;9.63;;;7.90;99.90;;;7.71;76.78;97543.69;6281207;22;20692;-74
2023/03/11 09:31:34;;;;;;;13.30;9.90;;;7.90;99.90;;;7.69;77.55;97550.59;6281775;22;20177;-76
2023/03/11 09:34:03;;;;;;;15.53;10.40;;;7.90;99.90;;;7.66;78.09;97548.19;6281183;22;20168;-78
2023/03/11 09:36:33;;;;;;;15.10;10.93;;;7.90;99.90;;;7.61;77.75;97555.19;6283901;22;20568;-76
2023/03/11 09:39:01;;;;;;;16.00;11.30;;;7.80;99.90;;;7.52;78.05;97562.44;6295715;22;20195;-76
2023/03/11 09:41:41;;;;;;;16.53;11.97;;;7.80;99.90;;;7.42;78.19;97580.72;6290601;22;20480;-77
2023/03/11 09:44:36;;;;;;;19.07;12.87;;;7.70;99.90;;;7.30;77.30;97585.47;6264843;22;20168;-75
2023/03/11 09:47:37;;;;;;;16.80;12.07;;;7.60;99.90;;;7.09;76.68;97602.47;6284469;22;20191;-77
2023/03/11 09:50:30;;;;;;;19.63;12.40;;;7.40;99.90;;;6.88;76.54;97609.19;6283289;22;20157;-76
2023/03/11 09:53:21;;;;;;;19.83;12.93;;;7.20;99.90;;;6.68;76.47;97613.31;6299446;22;20152;-73
2023/03/11 09:55:52;;;;;;;19.00;13.40;;;7.00;99.90;;;6.46;75.81;97627.72;6300808;22;20157;-75
2023/03/11 09:58:36;;;;;;;20.67;13.90;;;6.70;99.90;;;6.25;75.57;97630.09;6293466;22;20212;-73
2023/03/11 10:01:17;;;;;;;23.60;14.13;;;6.50;99.90;;;6.07;75.33;97635.81;6285120;22;20169;-76
2023/03/11 10:03:53;;;;;;;18.03;12.00;;;6.40;99.90;;;5.96;75.28;97638.72;6289500;22;20160;-79
2023/03/11 10:06:25;;;;;;;14.63;10.20;;;6.30;99.90;;;5.82;74.87;97645.97;6290321;22;20170;-77
2023/03/11 10:09:02;;;;;;;17.53;10.67;;;6.10;99.90;;;5.72;74.57;97665.00;6290633;22;20173;-75
2023/03/11 10:11:59;;;;;;;14.13;9.63;;;6.00;99.90;;;5.57;74.11;97664.59;6295292;22;20212;-78
2023/03/11 10:15:10;;;;;;;13.90;10.13;;;5.90;99.90;;;5.38;73.66;97690.72;6292554;22;20169;-75
2023/03/11 10:17:59;;;;;;;11.40;8.30;;;5.70;99.90;;;5.23;73.40;97676.66;6283117;22;20204;-75
2023/03/11 10:20:38;;;;;;;11.97;7.77;;;5.50;99.90;;;5.12;73.72;97689.72;6281840;22;20165;-73
2023/03/11 10:23:19;;;;;;;9.63;6.90;;;5.40;99.90;;;4.98;74.28;97691.81;6284327;22;20164;-75
2023/03/11 10:26:03;;;;;;;9.67;7.53;;;5.30;99.90;;;4.89;74.70;97692.06;6284056;22;20192;-71
2023/03/11 10:28:36;;;;;;;8.90;6.70;;;5.20;99.90;;;4.78;74.69;97700.81;6284814;22;20202;-72
2023/03/11 10:31:22;;;;;;;7.93;6.57;;;5.10;99.90;;;4.74;74.87;97709.44;6279114;22;20179;-72
2023/03/11 10:33:56;;;;;;;9.07;6.43;;;5.10;99.90;;;4.73;75.04;97710.31;6280238;22;20602;-72
2023/03/11 10:36:38;;;;;;;8.50;6.27;;;5.00;99.90;;;4.66;75.05;97719.00;6281504;22;20387;-74
2023/03/11 10:39:11;;;;;;;6.70;5.83;;;5.00;99.90;;;4.58;74.94;97724.28;6278970;22;20213;-70
2023/03/11 10:41:49;;;;;;;6.87;5.77;;;4.90;99.90;;;4.50;75.10;97735.56;6280485;22;20172;-71
2023/03/11 10:44:24;;;;;;;6.57;5.63;;;4.80;99.90;;;4.42;75.94;97734.88;6283893;22;20168;-65
2023/03/11 10:46:54;;;;;;;6.83;5.60;;;4.70;99.90;;;4.38;75.82;97751.13;6284594;22;20190;-74